YGG weather

Ganges Seaplane Base
Salt Spring Island, British Columbia, Canada

Public forecast

Using degrees Celsius for public forecast. Weather courtesy of forecast.io.

METAR (pilot weather report)

Closest report is Victoria International Airport, 12.8 nm (23.7 km) SSE. Retrieved 2019/09/15 04:24 UTC (8 minutes ago):

CYYJ 150424Z 10007KT 3SM BR FEW002 FEW007 SCT025 OVC046 13/13 A2974 RMK SF1SF1SC4SC4 SF TR SF TR SLP073 DENSITY ALT 100FT

TAF (pilot weather forecast)

Forecast is more than 12 hours old.

Closest forecast is Victoria International Airport, 12.8 nm (23.7 km) SSE. Retrieved 2019/09/14 00:42 UTC (1 day ago):

TAF CYYJ 142338Z 1500/1524 14010G20KT P6SM SCT020 BKN050 TEMPO 1500/1502 P6SM -SHRA BKN020 OVC050 FM150200 14008KT P6SM -RA SCT020 OVC050 TEMPO 1502/1508 3SM SHRA SCT008 OVC020 FM150800 22006KT P6SM SCT030 BKN200 TEMPO 1508/1516 BKN030 FM151600 14006KT 5SM -SHRA BR BKN015 OVC040 RMK NXT FCST BY 150600Z